createdAt,value
2017-07-06T00:00:46.797Z,23.7
2017-07-06T00:01:48.165Z,23.8
2017-07-06T00:02:49.528Z,23.7
2017-07-06T00:03:50.897Z,23.7
2017-07-06T00:04:52.265Z,23.7
2017-07-06T00:05:53.632Z,23.7
2017-07-06T00:06:54.999Z,23.6
2017-07-06T00:07:56.365Z,23.7
2017-07-06T00:08:57.729Z,23.7
2017-07-06T00:09:59.095Z,23.6
2017-07-06T00:11:00.468Z,23.6
2017-07-06T00:12:01.829Z,23.6
2017-07-06T00:13:03.195Z,23.6
2017-07-06T00:14:04.561Z,23.6
2017-07-06T00:15:05.927Z,23.6
2017-07-06T00:16:07.292Z,23.7
2017-07-06T00:17:08.656Z,23.6
2017-07-06T00:18:10.023Z,23.6
2017-07-06T00:19:11.387Z,23.6
2017-07-06T00:20:12.751Z,23.6
2017-07-06T00:21:14.117Z,23.6
2017-07-06T00:22:15.488Z,23.7
2017-07-06T00:23:16.853Z,23.6
2017-07-06T00:24:18.221Z,23.6
2017-07-06T00:25:19.583Z,23.6
2017-07-06T00:26:20.948Z,23.6
2017-07-06T00:27:22.312Z,23.6
2017-07-06T00:28:23.679Z,23.6
2017-07-06T00:29:25.051Z,23.6
2017-07-06T00:30:26.412Z,23.6
2017-07-06T00:31:27.782Z,23.5
2017-07-06T00:32:29.145Z,23.5
2017-07-06T00:33:30.509Z,23.5
2017-07-06T00:34:31.872Z,23.5
2017-07-06T00:35:33.247Z,23.6
2017-07-06T00:36:34.635Z,23.5
2017-07-06T00:37:36.003Z,23.6
2017-07-06T00:38:37.369Z,23.5
2017-07-06T00:39:38.746Z,23.6
2017-07-06T00:40:40.105Z,23.6
2017-07-06T00:41:41.472Z,23.6
2017-07-06T00:42:42.836Z,23.6
2017-07-06T00:43:44.206Z,23.5
2017-07-06T00:44:45.565Z,23.6
2017-07-06T00:45:46.939Z,23.5
2017-07-06T00:46:48.300Z,23.5
2017-07-06T00:47:49.667Z,23.5
2017-07-06T00:48:51.019Z,23.5
2017-07-06T00:49:52.397Z,23.6
2017-07-06T00:50:53.766Z,23.5
2017-07-06T00:51:55.129Z,23.5
2017-07-06T00:52:56.494Z,23.6
2017-07-06T00:53:57.860Z,23.6
2017-07-06T00:54:59.227Z,23.6
2017-07-06T00:56:00.591Z,23.5
2017-07-06T00:57:01.955Z,23.6
2017-07-06T00:58:03.321Z,23.5
2017-07-06T00:59:04.686Z,23.6
2017-07-06T01:00:06.058Z,23.5
2017-07-06T01:01:07.421Z,23.5
2017-07-06T01:02:08.797Z,23.5
2017-07-06T01:03:10.153Z,23.5
2017-07-06T01:04:11.524Z,23.5
2017-07-06T01:05:12.890Z,23.5
2017-07-06T01:06:14.255Z,23.5
2017-07-06T01:07:15.622Z,23.5
2017-07-06T01:08:16.989Z,23.5
2017-07-06T01:09:18.353Z,23.5
2017-07-06T01:10:19.720Z,23.5
2017-07-06T01:11:21.084Z,23.4
2017-07-06T01:12:22.448Z,23.5
2017-07-06T01:13:23.813Z,23.5
2017-07-06T01:14:25.181Z,23.5
2017-07-06T01:15:26.544Z,23.5
2017-07-06T01:16:27.916Z,23.5
2017-07-06T01:17:29.279Z,23.4
2017-07-06T01:18:30.646Z,23.4
2017-07-06T01:19:32.023Z,23.5
2017-07-06T01:20:33.420Z,23.4
2017-07-06T01:21:34.784Z,23.5
2017-07-06T01:22:36.146Z,23.5
2017-07-06T01:23:37.513Z,23.4
2017-07-06T01:24:38.876Z,23.4
2017-07-06T01:25:40.243Z,23.4
2017-07-06T01:26:41.611Z,23.5
2017-07-06T01:27:42.976Z,23.5
2017-07-06T01:28:46.946Z,23.4
2017-07-06T01:29:48.341Z,23.4
2017-07-06T01:30:49.716Z,23.4
2017-07-06T01:31:51.115Z,23.5
2017-07-06T01:32:52.484Z,23.4
2017-07-06T01:33:53.844Z,23.4
2017-07-06T01:34:55.212Z,23.4
2017-07-06T01:35:56.576Z,23.4
2017-07-06T01:36:57.942Z,23.4
2017-07-06T01:37:59.308Z,23.4
2017-07-06T01:39:00.678Z,23.4
2017-07-06T01:40:02.044Z,23.4
2017-07-06T01:41:03.407Z,23.3
2017-07-06T01:42:04.777Z,23.4
2017-07-06T01:43:06.144Z,23.5
2017-07-06T01:44:07.513Z,23.4
2017-07-06T01:45:08.888Z,23.4
2017-07-06T01:46:10.251Z,23.4
2017-07-06T01:47:11.639Z,23.4
2017-07-06T01:48:13.000Z,23.3
2017-07-06T01:49:14.365Z,23.4
2017-07-06T01:50:15.729Z,23.5
2017-07-06T01:51:17.094Z,23.4
2017-07-06T01:52:18.463Z,23.4
2017-07-06T01:53:19.829Z,23.3
2017-07-06T01:54:21.193Z,23.4
2017-07-06T01:55:22.557Z,23.4
2017-07-06T01:56:23.923Z,23.4
2017-07-06T01:57:25.285Z,23.4
2017-07-06T01:58:26.650Z,23.4
2017-07-06T01:59:28.015Z,23.4
2017-07-06T02:00:29.386Z,23.4
2017-07-06T02:01:30.749Z,23.4
2017-07-06T02:02:32.123Z,23.4
2017-07-06T02:03:33.475Z,23.4
2017-07-06T02:04:34.845Z,23.4
2017-07-06T02:05:36.214Z,23.3
2017-07-06T02:06:37.581Z,23.4
2017-07-06T02:07:38.952Z,23.4
2017-07-06T02:08:40.314Z,23.3
2017-07-06T02:09:41.682Z,23.4
2017-07-06T02:10:43.067Z,23.4
2017-07-06T02:11:44.410Z,23.3
2017-07-06T02:12:45.780Z,23.4
2017-07-06T02:13:47.143Z,23.3
2017-07-06T02:14:48.513Z,23.3
2017-07-06T02:15:49.878Z,23.3
2017-07-06T02:16:51.242Z,23.4
2017-07-06T02:17:52.610Z,23.3
2017-07-06T02:18:53.972Z,23.3
2017-07-06T02:19:55.335Z,23.4
2017-07-06T02:20:56.703Z,23.3
2017-07-06T02:21:58.069Z,23.3
2017-07-06T02:22:59.434Z,23.3
2017-07-06T02:24:00.821Z,23.3
2017-07-06T02:25:02.183Z,23.3
2017-07-06T02:26:03.546Z,23.3
2017-07-06T02:27:04.915Z,23.3
2017-07-06T02:28:06.277Z,23.3
2017-07-06T02:29:07.679Z,23.3
2017-07-06T02:30:09.057Z,23.3
2017-07-06T02:31:10.421Z,23.3
2017-07-06T02:32:11.815Z,23.4
2017-07-06T02:33:13.183Z,23.3
2017-07-06T02:34:14.550Z,23.3
2017-07-06T02:35:15.916Z,23.3
2017-07-06T02:36:17.282Z,23.3
2017-07-06T02:37:18.664Z,23.3
2017-07-06T02:38:20.023Z,23.3
2017-07-06T02:39:21.387Z,23.3
2017-07-06T02:40:22.751Z,23.4
2017-07-06T02:41:24.132Z,23.3
2017-07-06T02:42:25.517Z,23.3
2017-07-06T02:43:26.876Z,23.3
2017-07-06T02:44:28.244Z,23.3
2017-07-06T02:45:29.607Z,23.3
2017-07-06T02:46:30.972Z,23.3
2017-07-06T02:47:32.349Z,23.3
2017-07-06T02:48:33.720Z,23.2
2017-07-06T02:49:35.083Z,23.3
2017-07-06T02:50:36.450Z,23.3
2017-07-06T02:51:37.823Z,23.3
2017-07-06T02:52:39.225Z,23.3
2017-07-06T02:53:40.589Z,23.3
2017-07-06T02:54:41.952Z,23.3
2017-07-06T02:55:43.317Z,23.3
2017-07-06T02:56:44.682Z,23.3
2017-07-06T02:57:46.052Z,23.3
2017-07-06T02:58:47.413Z,23.3
2017-07-06T02:59:48.782Z,23.3
2017-07-06T03:00:50.168Z,23.3
2017-07-06T03:01:51.513Z,23.3
2017-07-06T03:02:52.883Z,23.2
2017-07-06T03:03:54.254Z,23.3
2017-07-06T03:04:55.616Z,23.3
2017-07-06T03:05:56.985Z,23.2
2017-07-06T03:06:58.351Z,23.3
2017-07-06T03:07:59.716Z,23.3
2017-07-06T03:09:01.083Z,23.3
2017-07-06T03:10:02.441Z,23.3
2017-07-06T03:11:03.809Z,23.3
2017-07-06T03:12:05.181Z,23.3
2017-07-06T03:13:06.547Z,23.3
2017-07-06T03:14:07.909Z,23.2
2017-07-06T03:15:09.276Z,23.2
2017-07-06T03:16:10.641Z,23.3
2017-07-06T03:17:12.003Z,23.3
2017-07-06T03:18:13.382Z,23.3
2017-07-06T03:19:14.748Z,23.3
2017-07-06T03:20:16.118Z,23.3
2017-07-06T03:21:17.482Z,23.3
2017-07-06T03:22:18.845Z,23.3
2017-07-06T03:23:20.212Z,23.3
2017-07-06T03:24:21.575Z,23.3
2017-07-06T03:25:22.941Z,23.2
2017-07-06T03:26:24.307Z,23.3
2017-07-06T03:27:25.672Z,23.3
2017-07-06T03:28:27.042Z,23.3
2017-07-06T03:29:28.405Z,23.3
2017-07-06T03:30:29.769Z,23.2
2017-07-06T03:31:31.138Z,23.3
2017-07-06T03:32:32.502Z,23.2
2017-07-06T03:33:33.875Z,23.2
2017-07-06T03:34:35.242Z,23.3
2017-07-06T03:35:36.601Z,23.3
2017-07-06T03:36:37.965Z,23.3
2017-07-06T03:37:39.337Z,23.3
2017-07-06T03:38:40.700Z,23.2
2017-07-06T03:39:42.079Z,23.3
2017-07-06T03:40:43.447Z,23.3
2017-07-06T03:41:44.845Z,23.3
2017-07-06T03:42:46.200Z,23.3
2017-07-06T03:43:47.565Z,23.3
2017-07-06T03:44:48.944Z,23.3
2017-07-06T03:45:50.302Z,23.3
2017-07-06T03:46:51.671Z,23.2
2017-07-06T03:47:53.034Z,23.3
2017-07-06T03:48:54.489Z,23.3
2017-07-06T03:49:55.855Z,23.3
2017-07-06T03:50:57.222Z,23.3
2017-07-06T03:51:58.585Z,23.3
2017-07-06T03:53:00.007Z,23.3
2017-07-06T03:54:01.318Z,23.3
2017-07-06T03:55:02.685Z,23.3
2017-07-06T03:56:04.053Z,23.3
2017-07-06T03:57:05.420Z,23.3
2017-07-06T03:58:06.811Z,23.3
2017-07-06T03:59:08.196Z,23.3
2017-07-06T04:00:09.618Z,23.3
2017-07-06T04:01:10.930Z,23.4
2017-07-06T04:02:12.299Z,23.3
2017-07-06T04:03:13.671Z,23.4
2017-07-06T04:04:15.036Z,23.4
2017-07-06T04:05:16.431Z,23.4
2017-07-06T04:06:17.792Z,23.1
2017-07-06T04:07:19.589Z,23.0
2017-07-06T04:08:21.014Z,22.7
2017-07-06T04:09:22.384Z,22.7
2017-07-06T04:10:23.756Z,22.8
2017-07-06T04:11:25.122Z,22.7
2017-07-06T04:12:26.484Z,22.7
2017-07-06T04:13:27.855Z,22.6
2017-07-06T04:14:29.221Z,22.2
2017-07-06T04:15:30.787Z,22.3
2017-07-06T04:16:32.167Z,22.1
2017-07-06T04:17:33.526Z,22.0
2017-07-06T04:18:34.973Z,22.1
2017-07-06T04:19:36.368Z,21.9
2017-07-06T04:20:37.855Z,21.9
2017-07-06T04:21:39.219Z,21.9
2017-07-06T04:22:40.620Z,21.8
2017-07-06T04:23:41.987Z,21.8
2017-07-06T04:24:44.918Z,21.8
2017-07-06T04:25:46.283Z,21.8
2017-07-06T04:26:47.645Z,22.0
2017-07-06T04:27:49.306Z,21.9
2017-07-06T04:28:50.676Z,21.8
2017-07-06T04:29:52.365Z,21.8
2017-07-06T04:30:53.733Z,21.8
2017-07-06T04:31:55.110Z,21.8
2017-07-06T04:32:56.471Z,21.8
2017-07-06T04:33:57.836Z,21.8
2017-07-06T04:34:59.228Z,21.8
2017-07-06T04:36:00.600Z,21.8
2017-07-06T04:37:01.963Z,21.7
2017-07-06T04:38:03.342Z,21.7
2017-07-06T04:39:04.707Z,21.6
2017-07-06T04:40:06.080Z,21.7
2017-07-06T04:41:07.438Z,21.5
2017-07-06T04:42:08.831Z,21.5
2017-07-06T04:43:10.193Z,21.6
2017-07-06T04:44:11.571Z,21.6
2017-07-06T04:45:12.938Z,21.7
2017-07-06T04:46:14.308Z,21.6
2017-07-06T04:47:15.673Z,21.5
2017-07-06T04:48:17.036Z,21.4
2017-07-06T04:49:18.404Z,21.3
2017-07-06T04:50:19.770Z,21.4
2017-07-06T04:51:21.132Z,21.6
2017-07-06T04:52:22.503Z,21.8
2017-07-06T04:53:23.865Z,21.8
2017-07-06T04:54:25.233Z,21.8
2017-07-06T04:55:26.602Z,21.8
2017-07-06T04:56:27.978Z,21.8
2017-07-06T04:57:29.391Z,21.8
2017-07-06T04:58:30.754Z,21.7
2017-07-06T04:59:32.118Z,21.7
2017-07-06T05:00:33.481Z,21.7
2017-07-06T05:01:34.853Z,21.9
2017-07-06T05:02:36.215Z,22.0
2017-07-06T05:03:37.610Z,22.0
2017-07-06T05:04:38.979Z,21.9
2017-07-06T05:05:40.343Z,21.9
2017-07-06T05:06:41.712Z,22.0
2017-07-06T05:07:43.069Z,22.1
2017-07-06T05:08:44.441Z,22.1
2017-07-06T05:09:45.801Z,22.1
2017-07-06T05:10:47.175Z,22.1
2017-07-06T05:11:48.546Z,22.0
2017-07-06T05:12:49.910Z,22.2
2017-07-06T05:13:51.284Z,22.1
2017-07-06T05:14:52.654Z,22.1
2017-07-06T05:15:54.065Z,22.1
2017-07-06T05:16:55.452Z,22.0
2017-07-06T05:17:56.815Z,22.0
2017-07-06T05:18:58.183Z,22.1
2017-07-06T05:19:59.546Z,22.1
2017-07-06T05:21:00.910Z,22.3
2017-07-06T05:22:02.276Z,22.3
2017-07-06T05:23:03.646Z,22.4
2017-07-06T05:24:05.011Z,22.5
2017-07-06T05:25:06.380Z,22.5
2017-07-06T05:26:07.782Z,22.5
2017-07-06T05:27:09.147Z,22.7
2017-07-06T05:28:10.516Z,22.7
2017-07-06T05:29:11.885Z,22.7
2017-07-06T05:30:13.249Z,22.8
2017-07-06T05:31:14.620Z,22.7
2017-07-06T05:32:15.985Z,22.7
2017-07-06T05:33:17.374Z,22.7
2017-07-06T05:34:18.753Z,22.8
2017-07-06T05:35:20.117Z,22.8
2017-07-06T05:36:21.494Z,22.9
2017-07-06T05:37:22.866Z,22.9
2017-07-06T05:38:24.224Z,22.8
2017-07-06T05:39:25.590Z,22.9
2017-07-06T05:40:26.959Z,23.0
2017-07-06T05:41:28.326Z,22.9
2017-07-06T05:42:29.694Z,22.9
2017-07-06T05:43:31.063Z,23.0
2017-07-06T05:44:32.438Z,22.9
2017-07-06T05:45:33.802Z,23.0
2017-07-06T05:46:35.169Z,23.0
2017-07-06T05:47:36.535Z,23.0
2017-07-06T05:48:37.902Z,23.1
2017-07-06T05:49:39.272Z,23.1
2017-07-06T05:50:40.655Z,23.1
2017-07-06T05:51:42.020Z,23.1
2017-07-06T05:52:43.386Z,23.1
2017-07-06T05:53:44.752Z,23.1
2017-07-06T05:54:46.117Z,23.1
2017-07-06T05:55:47.485Z,23.1
2017-07-06T05:56:48.854Z,23.1
2017-07-06T05:57:50.223Z,23.1
2017-07-06T05:58:51.584Z,23.1
2017-07-06T05:59:52.954Z,23.2
2017-07-06T06:00:54.320Z,23.2
2017-07-06T06:01:55.682Z,23.2
2017-07-06T06:02:57.061Z,23.2
2017-07-06T06:03:58.427Z,23.3
2017-07-06T06:04:59.803Z,23.2
2017-07-06T06:06:01.165Z,23.2
2017-07-06T06:07:02.530Z,23.2
2017-07-06T06:08:03.898Z,23.3
2017-07-06T06:09:05.272Z,23.3
2017-07-06T06:10:06.642Z,23.3
2017-07-06T06:11:08.009Z,23.2
2017-07-06T06:12:09.378Z,23.3
2017-07-06T06:13:10.744Z,23.3
2017-07-06T06:14:12.108Z,23.3
2017-07-06T06:15:13.477Z,23.3
2017-07-06T06:16:14.846Z,23.4
2017-07-06T06:17:16.215Z,23.4
2017-07-06T06:18:17.586Z,23.4
2017-07-06T06:19:18.953Z,23.4
2017-07-06T06:20:20.322Z,23.4
2017-07-06T06:21:21.689Z,23.4
2017-07-06T06:22:23.055Z,23.4
2017-07-06T06:23:24.424Z,23.4
2017-07-06T06:24:25.791Z,23.4
2017-07-06T06:25:27.160Z,23.4
2017-07-06T06:26:28.527Z,23.5
2017-07-06T06:27:29.893Z,23.5
2017-07-06T06:28:31.261Z,23.5
2017-07-06T06:29:32.628Z,23.6
2017-07-06T06:30:34.004Z,23.5
2017-07-06T06:31:35.372Z,23.5
2017-07-06T06:32:36.743Z,23.6
2017-07-06T06:33:38.111Z,23.6
2017-07-06T06:34:39.477Z,23.6
2017-07-06T06:35:40.844Z,23.6
2017-07-06T06:36:42.207Z,23.6
2017-07-06T06:37:43.577Z,23.6
2017-07-06T06:38:44.944Z,23.7
2017-07-06T06:39:46.309Z,23.7
2017-07-06T06:40:47.683Z,23.6
2017-07-06T06:41:49.052Z,23.6
2017-07-06T06:42:50.426Z,23.6
2017-07-06T06:43:51.791Z,23.6
2017-07-06T06:44:53.156Z,23.7
2017-07-06T06:45:54.531Z,23.6
2017-07-06T06:46:55.897Z,23.7
2017-07-06T06:47:57.265Z,23.7
2017-07-06T06:48:58.632Z,23.7
2017-07-06T06:49:59.998Z,23.7
2017-07-06T06:51:01.367Z,23.7
2017-07-06T06:52:02.739Z,23.7
2017-07-06T06:53:04.120Z,23.7
2017-07-06T06:54:05.482Z,23.7
2017-07-06T06:55:06.850Z,23.7
2017-07-06T06:56:08.218Z,23.7
2017-07-06T06:57:09.581Z,23.7
2017-07-06T06:58:10.955Z,23.8
2017-07-06T06:59:12.324Z,23.7
2017-07-06T07:00:13.690Z,23.7
2017-07-06T07:01:15.064Z,23.7
2017-07-06T07:02:16.433Z,23.8
2017-07-06T07:03:17.801Z,23.7
2017-07-06T07:04:19.169Z,23.8
2017-07-06T07:05:20.537Z,23.9
2017-07-06T07:06:21.907Z,23.8
2017-07-06T07:07:23.325Z,23.8
2017-07-06T07:08:24.644Z,23.8
2017-07-06T07:09:26.024Z,23.8
2017-07-06T07:10:27.387Z,23.8
2017-07-06T07:11:28.752Z,23.8
2017-07-06T07:12:30.129Z,23.8
2017-07-06T07:13:31.493Z,23.8
2017-07-06T07:14:32.868Z,23.8
2017-07-06T07:15:34.236Z,23.9
2017-07-06T07:16:35.636Z,23.9
2017-07-06T07:17:37.027Z,23.8
2017-07-06T07:18:38.386Z,23.8
2017-07-06T07:19:39.755Z,23.8
2017-07-06T07:20:41.123Z,23.9
2017-07-06T07:21:42.492Z,23.8
2017-07-06T07:22:43.870Z,24.0
2017-07-06T07:23:45.243Z,23.9
2017-07-06T07:24:46.613Z,24.0
2017-07-06T07:25:48.015Z,23.9
2017-07-06T07:26:49.384Z,23.9
2017-07-06T07:27:50.752Z,24.0
2017-07-06T07:28:52.123Z,23.9
2017-07-06T07:29:53.493Z,23.9
2017-07-06T07:30:54.860Z,23.9
2017-07-06T07:31:56.232Z,23.9
2017-07-06T07:32:57.598Z,23.9
2017-07-06T07:33:58.969Z,24.0
2017-07-06T07:35:00.334Z,23.9
2017-07-06T07:36:01.702Z,24.0
2017-07-06T07:37:03.074Z,24.0
2017-07-06T07:38:04.441Z,23.9
2017-07-06T07:39:05.807Z,23.9
2017-07-06T07:40:07.180Z,23.9
2017-07-06T07:41:08.551Z,24.0
2017-07-06T07:42:09.917Z,24.1
2017-07-06T07:43:11.285Z,23.9
2017-07-06T07:44:12.660Z,24.0
2017-07-06T07:45:14.029Z,23.9
2017-07-06T07:46:15.424Z,23.9
2017-07-06T07:47:16.792Z,24.0
2017-07-06T07:48:18.159Z,24.0
2017-07-06T07:49:19.528Z,24.0
2017-07-06T07:50:20.912Z,23.9
2017-07-06T07:51:22.285Z,24.0
2017-07-06T07:52:23.656Z,23.9
2017-07-06T07:53:25.023Z,23.8
2017-07-06T07:54:26.392Z,24.0
2017-07-06T07:55:27.758Z,23.9
2017-07-06T07:56:29.129Z,24.0
2017-07-06T07:57:30.497Z,24.1
2017-07-06T07:58:31.882Z,24.0
2017-07-06T07:59:33.277Z,24.0
2017-07-06T08:00:34.648Z,23.9
2017-07-06T08:01:36.021Z,24.0
2017-07-06T08:02:37.391Z,24.0
2017-07-06T08:03:38.788Z,24.0
2017-07-06T08:04:40.157Z,24.0
2017-07-06T08:05:41.528Z,24.0
2017-07-06T08:06:42.949Z,24.0
2017-07-06T08:07:44.323Z,24.1
2017-07-06T08:08:45.684Z,24.0
2017-07-06T08:09:47.057Z,24.0
2017-07-06T08:10:48.426Z,24.0
2017-07-06T08:11:49.789Z,24.0
2017-07-06T08:12:51.161Z,24.0
2017-07-06T08:13:52.531Z,24.0
2017-07-06T08:14:53.896Z,24.1
2017-07-06T08:15:55.267Z,24.2
2017-07-06T08:16:56.632Z,24.2
2017-07-06T08:17:58.004Z,24.2
2017-07-06T08:18:59.372Z,24.1
2017-07-06T08:20:00.740Z,24.1
2017-07-06T08:21:02.111Z,24.1
2017-07-06T08:22:03.529Z,24.1
2017-07-06T08:23:04.908Z,24.0
2017-07-06T08:24:06.271Z,24.1
2017-07-06T08:25:07.637Z,24.2
2017-07-06T08:26:09.026Z,24.2
2017-07-06T08:27:10.444Z,24.2
2017-07-06T08:28:11.836Z,24.2
2017-07-06T08:29:13.203Z,24.2
2017-07-06T08:30:14.573Z,24.2
2017-07-06T08:31:16.021Z,24.2
2017-07-06T08:32:17.410Z,24.2
2017-07-06T08:33:18.780Z,24.2
2017-07-06T08:34:20.154Z,24.3
2017-07-06T08:35:21.529Z,24.4
2017-07-06T08:36:22.896Z,24.3
2017-07-06T08:37:24.310Z,24.3
2017-07-06T08:38:25.709Z,24.4
2017-07-06T08:39:27.081Z,24.3
2017-07-06T08:40:28.449Z,24.3
2017-07-06T08:41:29.822Z,24.3
2017-07-06T08:42:31.197Z,24.3
2017-07-06T08:43:32.567Z,24.4
2017-07-06T08:44:33.933Z,24.3
2017-07-06T08:45:35.306Z,24.4
2017-07-06T08:46:36.677Z,24.4
2017-07-06T08:47:38.046Z,24.4
2017-07-06T08:48:39.418Z,24.3
2017-07-06T08:49:40.792Z,24.4
2017-07-06T08:50:42.161Z,24.4
2017-07-06T08:51:43.533Z,24.5
2017-07-06T08:52:44.906Z,24.5
2017-07-06T08:53:46.279Z,24.5
2017-07-06T08:54:47.654Z,24.4
2017-07-06T08:55:49.024Z,24.5
2017-07-06T08:56:50.390Z,24.5
2017-07-06T08:57:51.761Z,24.5
2017-07-06T08:58:53.132Z,24.5
2017-07-06T08:59:54.498Z,24.5
2017-07-06T09:00:55.867Z,24.5
2017-07-06T09:01:57.241Z,24.5
2017-07-06T09:02:58.610Z,24.6
2017-07-06T09:03:59.986Z,24.6
2017-07-06T09:05:01.357Z,24.6
2017-07-06T09:06:02.725Z,24.6
2017-07-06T09:07:04.110Z,24.7
2017-07-06T09:08:05.513Z,24.7
2017-07-06T09:09:06.885Z,24.7
2017-07-06T09:10:08.253Z,24.7
2017-07-06T09:11:09.626Z,24.7
2017-07-06T09:12:10.998Z,24.6
2017-07-06T09:13:12.371Z,24.6
2017-07-06T09:14:13.740Z,24.7
2017-07-06T09:15:15.111Z,24.7
2017-07-06T09:16:16.484Z,24.8
2017-07-06T09:17:17.856Z,24.8
2017-07-06T09:18:19.227Z,24.7
2017-07-06T09:19:20.593Z,24.8
2017-07-06T09:20:21.964Z,24.8
2017-07-06T09:21:23.332Z,24.7
2017-07-06T09:22:24.702Z,24.7
2017-07-06T09:23:26.078Z,24.7
2017-07-06T09:24:27.447Z,24.8
2017-07-06T09:25:28.815Z,24.7
2017-07-06T09:26:30.184Z,24.7
2017-07-06T09:27:31.553Z,24.7
2017-07-06T09:28:32.926Z,24.8
2017-07-06T09:29:34.297Z,24.8
2017-07-06T09:30:35.669Z,24.7
2017-07-06T09:31:37.040Z,24.8
2017-07-06T09:32:38.411Z,24.7
2017-07-06T09:33:39.787Z,24.8
2017-07-06T09:34:41.156Z,24.8
2017-07-06T09:35:42.527Z,24.8
2017-07-06T09:36:43.898Z,24.8
2017-07-06T09:37:45.268Z,24.8
2017-07-06T09:38:46.638Z,24.8
2017-07-06T09:39:48.013Z,24.8
2017-07-06T09:40:49.377Z,24.8
2017-07-06T09:41:50.746Z,24.8
2017-07-06T09:42:52.121Z,24.8
2017-07-06T09:43:53.492Z,24.8
2017-07-06T09:44:54.863Z,24.8
2017-07-06T09:45:56.232Z,24.8
2017-07-06T09:46:57.604Z,24.8
2017-07-06T09:47:58.973Z,24.8
2017-07-06T09:49:00.339Z,24.8
2017-07-06T09:50:01.728Z,24.8
2017-07-06T09:51:03.101Z,24.9
2017-07-06T09:52:04.470Z,24.8
2017-07-06T09:53:05.856Z,24.9
2017-07-06T09:54:07.226Z,24.9
2017-07-06T09:55:08.595Z,24.9
2017-07-06T09:56:09.963Z,25.0
2017-07-06T09:57:11.332Z,24.9
2017-07-06T09:58:12.709Z,24.9
2017-07-06T09:59:14.073Z,24.9
2017-07-06T10:00:15.446Z,24.9
2017-07-06T10:01:16.818Z,24.9
2017-07-06T10:02:18.201Z,25.0
2017-07-06T10:03:19.591Z,25.0
2017-07-06T10:04:20.961Z,25.0
2017-07-06T10:05:22.331Z,25.0
2017-07-06T10:06:23.707Z,24.9
2017-07-06T10:07:25.079Z,25.1
2017-07-06T10:08:26.449Z,25.1
2017-07-06T10:09:27.817Z,25.1
2017-07-06T10:10:29.187Z,25.2
2017-07-06T10:11:30.557Z,25.2
2017-07-06T10:12:31.928Z,25.3
2017-07-06T10:13:33.303Z,25.3
2017-07-06T10:14:34.676Z,25.4
2017-07-06T10:15:36.047Z,25.3
2017-07-06T10:16:37.418Z,25.3
2017-07-06T10:17:38.788Z,25.3
2017-07-06T10:18:40.159Z,25.3
2017-07-06T10:19:41.532Z,25.3
2017-07-06T10:20:42.902Z,25.3
2017-07-06T10:21:44.275Z,25.2
2017-07-06T10:22:45.651Z,25.3
2017-07-06T10:23:47.016Z,25.4
2017-07-06T10:24:48.389Z,25.3
2017-07-06T10:25:49.759Z,25.3
2017-07-06T10:26:51.129Z,25.3
2017-07-06T10:27:52.497Z,25.4
2017-07-06T10:28:53.868Z,25.3
2017-07-06T10:29:55.238Z,25.3
2017-07-06T10:30:56.606Z,25.4
2017-07-06T10:31:57.974Z,25.5
2017-07-06T10:32:59.345Z,25.4
2017-07-06T10:34:00.712Z,25.4
2017-07-06T10:35:02.107Z,25.3
2017-07-06T10:36:03.453Z,25.3
2017-07-06T10:37:04.823Z,25.4
2017-07-06T10:38:06.189Z,25.4
2017-07-06T10:39:07.559Z,25.4
2017-07-06T10:40:08.926Z,25.3
2017-07-06T10:41:10.299Z,25.4
2017-07-06T10:42:11.659Z,25.4
2017-07-06T10:43:13.041Z,25.5
2017-07-06T10:44:14.410Z,25.5
2017-07-06T10:45:15.784Z,25.5
2017-07-06T10:46:17.156Z,25.7
2017-07-06T10:47:18.538Z,25.6
2017-07-06T10:48:19.901Z,25.7
2017-07-06T10:49:22.372Z,25.7
2017-07-06T10:50:24.298Z,25.7
2017-07-06T10:51:26.062Z,25.7
2017-07-06T10:52:27.624Z,25.7
2017-07-06T10:53:29.185Z,25.7
2017-07-06T10:54:31.031Z,25.8
2017-07-06T10:55:32.481Z,25.8
2017-07-06T10:56:33.869Z,25.8
2017-07-06T10:57:35.248Z,26.0
2017-07-06T10:58:36.616Z,25.9
2017-07-06T10:59:37.985Z,26.0
2017-07-06T11:00:39.378Z,25.9
2017-07-06T11:01:40.751Z,26.0
2017-07-06T11:02:42.126Z,26.0
2017-07-06T11:03:43.580Z,26.0
2017-07-06T11:04:44.966Z,25.9
2017-07-06T11:05:46.333Z,26.1
2017-07-06T11:06:47.816Z,26.1
2017-07-06T11:07:49.202Z,26.1
2017-07-06T11:08:50.596Z,26.1
2017-07-06T11:09:51.954Z,26.1
2017-07-06T11:10:53.373Z,26.0
2017-07-06T11:11:54.779Z,26.0
2017-07-06T11:12:56.154Z,26.0
2017-07-06T11:13:57.527Z,25.9
2017-07-06T11:14:58.899Z,25.9
2017-07-06T11:16:00.722Z,26.0
2017-07-06T11:17:02.122Z,26.0
2017-07-06T11:18:03.520Z,25.8
2017-07-06T11:19:04.898Z,25.9
2017-07-06T11:20:06.263Z,25.9
2017-07-06T11:21:07.704Z,25.8
2017-07-06T11:22:09.094Z,25.9
2017-07-06T11:23:10.552Z,25.9
2017-07-06T11:24:12.180Z,26.0
2017-07-06T11:25:13.565Z,26.0
2017-07-06T11:26:14.961Z,26.2
2017-07-06T11:27:16.341Z,26.2
2017-07-06T11:28:17.730Z,26.1
2017-07-06T11:29:19.101Z,26.0
2017-07-06T11:30:20.468Z,26.1
2017-07-06T11:31:21.839Z,26.0
2017-07-06T11:32:23.394Z,26.0
2017-07-06T11:33:24.773Z,26.0
2017-07-06T11:34:26.141Z,26.0
2017-07-06T11:35:27.525Z,26.0
2017-07-06T11:36:28.889Z,26.0
2017-07-06T11:37:30.280Z,26.0
2017-07-06T11:38:31.651Z,26.0
2017-07-06T11:39:33.020Z,25.9
2017-07-06T11:40:34.409Z,25.8
2017-07-06T11:41:35.874Z,25.8
2017-07-06T11:42:37.248Z,25.9
2017-07-06T11:43:38.633Z,25.8
2017-07-06T11:44:40.025Z,25.8
2017-07-06T11:45:41.402Z,25.8
2017-07-06T11:46:42.828Z,25.8
2017-07-06T11:47:44.202Z,26.0
2017-07-06T11:48:45.575Z,26.0
2017-07-06T11:49:46.951Z,26.0
2017-07-06T11:50:48.355Z,25.9
2017-07-06T11:51:49.737Z,26.0
2017-07-06T11:52:51.381Z,25.9
2017-07-06T11:53:52.878Z,25.8
2017-07-06T11:54:54.478Z,25.8
2017-07-06T11:55:55.855Z,25.8
2017-07-06T11:56:57.253Z,25.7
2017-07-06T11:57:58.661Z,25.7
2017-07-06T11:59:00.162Z,25.7
2017-07-06T12:00:01.529Z,25.7
2017-07-06T12:01:02.940Z,25.9
2017-07-06T12:02:04.342Z,25.9
2017-07-06T12:03:05.794Z,25.8
2017-07-06T12:04:07.183Z,25.9
2017-07-06T12:05:08.637Z,26.0
2017-07-06T12:06:10.003Z,26.0
2017-07-06T12:07:11.379Z,25.9
2017-07-06T12:08:12.927Z,25.9
2017-07-06T12:09:14.493Z,25.8
2017-07-06T12:10:15.888Z,25.9
2017-07-06T12:11:17.268Z,25.8
2017-07-06T12:12:18.758Z,25.8
2017-07-06T12:13:20.157Z,25.9
2017-07-06T12:14:21.768Z,25.9
2017-07-06T12:15:23.143Z,25.9
2017-07-06T12:16:24.560Z,26.0
2017-07-06T12:17:25.933Z,26.0
2017-07-06T12:18:27.325Z,25.9
2017-07-06T12:19:28.699Z,26.0
2017-07-06T12:20:30.162Z,26.0
2017-07-06T12:21:31.917Z,26.0
2017-07-06T12:22:33.318Z,26.0
2017-07-06T12:23:34.726Z,26.0
2017-07-06T12:24:36.112Z,26.0
2017-07-06T12:25:37.586Z,26.0
2017-07-06T12:26:38.967Z,26.0
2017-07-06T12:27:40.365Z,25.9
2017-07-06T12:28:41.869Z,25.8
2017-07-06T12:29:43.256Z,25.8
2017-07-06T12:30:44.636Z,25.8
2017-07-06T12:31:46.011Z,25.7
2017-07-06T12:32:47.414Z,25.9
2017-07-06T12:33:48.776Z,25.9
2017-07-06T12:34:50.230Z,25.9
2017-07-06T12:35:51.619Z,25.9
2017-07-06T12:36:53.066Z,25.9
2017-07-06T12:37:54.442Z,25.8
2017-07-06T12:38:55.825Z,25.9
2017-07-06T12:39:57.196Z,25.9
2017-07-06T12:40:58.576Z,25.8
2017-07-06T12:42:00.092Z,25.8
2017-07-06T12:43:01.470Z,25.8
2017-07-06T12:44:02.857Z,25.9
2017-07-06T12:45:04.239Z,25.9
2017-07-06T12:46:05.646Z,26.1
2017-07-06T12:47:07.013Z,26.1
2017-07-06T12:48:08.390Z,26.1
2017-07-06T12:49:09.767Z,26.2
2017-07-06T12:50:11.139Z,26.2
2017-07-06T12:51:12.544Z,26.3
2017-07-06T12:52:13.922Z,26.2
2017-07-06T12:53:15.298Z,26.2
2017-07-06T12:54:16.678Z,26.1
2017-07-06T12:55:18.048Z,26.2
2017-07-06T12:56:19.424Z,26.0
2017-07-06T12:57:20.809Z,26.1
2017-07-06T12:58:22.182Z,26.1
2017-07-06T12:59:23.555Z,26.0
2017-07-06T13:00:24.941Z,26.1
2017-07-06T13:01:26.318Z,26.1
2017-07-06T13:02:27.716Z,26.1
2017-07-06T13:03:29.098Z,26.0
2017-07-06T13:04:30.470Z,25.9
2017-07-06T13:05:31.853Z,26.0
2017-07-06T13:06:33.219Z,26.1
2017-07-06T13:07:34.604Z,26.1
2017-07-06T13:08:36.004Z,26.1
2017-07-06T13:09:37.355Z,26.1
2017-07-06T13:10:38.726Z,26.2
2017-07-06T13:11:40.099Z,26.1
2017-07-06T13:12:41.473Z,26.0
2017-07-06T13:13:42.842Z,26.0
2017-07-06T13:14:44.240Z,26.0
2017-07-06T13:15:45.615Z,26.0
2017-07-06T13:16:47.009Z,25.8
2017-07-06T13:17:48.378Z,25.8
2017-07-06T13:18:49.777Z,25.8
2017-07-06T13:19:51.152Z,25.8
2017-07-06T13:20:52.575Z,25.7
2017-07-06T13:21:53.891Z,25.7
2017-07-06T13:22:55.299Z,25.7
2017-07-06T13:23:56.703Z,25.7
2017-07-06T13:24:58.068Z,25.8
2017-07-06T13:25:59.443Z,25.7
2017-07-06T13:27:00.838Z,25.7
2017-07-06T13:28:02.234Z,25.7
2017-07-06T13:29:03.657Z,25.7
2017-07-06T13:30:05.032Z,25.7
2017-07-06T13:31:06.409Z,25.7
2017-07-06T13:32:07.804Z,25.7
2017-07-06T13:33:09.173Z,25.7
2017-07-06T13:34:10.548Z,25.7
2017-07-06T13:35:11.927Z,25.7
2017-07-06T13:36:13.307Z,25.7
2017-07-06T13:37:14.712Z,25.6